Latest Weather Observations for Wattamolla

IDN60801

Issued at 6:23 pm EST Saturday 9 May 2026 (issued every 10 minutes, with the page automatically refreshed every 10 minutes)

About weather observations | Map of weather stations | Latest weather observations for NSW | Other Formats
Station Details ID: 066208 Name: WATTAMOLLA AWS Lat: -34.14 Lon: 151.12 Height: 44.0 m
Data from the previous 72 hours. | See also: Recent months at Wattamolla
Date/Time
EST
Temp
°C
App
Temp
°C
Dew
Point
°C
Rel
Hum
%
Delta-T
°C
Wind Press
QNH
hPa
Press
MSL
hPa
Rain since
9am
mm
Dir  Spd
km/h
Gust
km/h
Spd
kts
Gust
kts
09/06:00pm - - - - - SSE 17 24 9 13 - - -
09/05:30pm - - - - - SSE 17 26 9 14 - - -
09/05:00pm - - - - - S 22 33 12 18 - - -
09/04:30pm - - - - - SSE 26 33 14 18 - - -
09/04:00pm - - - - - SSE 20 30 11 16 - - -
09/03:30pm - - - - - SSE 22 30 12 16 - - -
09/03:00pm - - - - - SSE 24 33 13 18 - - -
09/02:30pm - - - - - SSE 28 35 15 19 - - -
09/02:00pm - - - - - SSE 24 30 13 16 - - -
09/01:30pm - - - - - SSE 24 28 13 15 - - -
09/01:00pm - - - - - SSE 24 32 13 17 - - -
09/12:30pm - - - - - S 30 33 16 18 - - -
09/12:00pm - - - - - S 32 35 17 19 - - -
09/11:30am - - - - - S 30 33 16 18 - - -
09/11:00am - - - - - S 30 33 16 18 - - -
09/10:30am - - - - - S 30 35 16 19 - - -
09/10:00am - - - - - S 20 32 11 17 - - -
09/09:30am - - - - - S 26 33 14 18 - - -
09/09:00am - - - - - S 24 37 13 20 - - -
09/08:30am - - - - - S 22 33 12 18 - - -
09/08:00am - - - - - S 17 32 9 17 - - -
09/07:30am - - - - - S 24 33 13 18 - - -
09/07:00am - - - - - WSW 17 24 9 13 - - -
09/06:30am - - - - - SSW 13 22 7 12 - - -
09/06:00am - - - - - SSW 15 28 8 15 - - -
09/05:30am - - - - - S 26 35 14 19 - - -
09/05:00am - - - - - WSW 17 20 9 11 - - -
09/04:30am - - - - - W 15 17 8 9 - - -
09/04:00am - - - - - W 17 19 9 10 - - -
09/03:30am - - - - - W 17 20 9 11 - - -
09/03:00am - - - - - WNW 17 24 9 13 - - -
09/02:30am - - - - - W 15 20 8 11 - - -
09/02:00am - - - - - WNW 13 17 7 9 - - -
09/01:30am - - - - - WNW 13 17 7 9 - - -
09/01:00am - - - - - W 15 20 8 11 - - -
09/12:30am - - - - - W 19 26 10 14 - - -
09/12:00am - - - - - W 19 26 10 14 - - -
 
Date/Time
EST
Temp
°C
App
Temp
°C
Dew
Point
°C
Rel
Hum
%
Delta-T
°C
Wind Press
QNH
hPa
Press
MSL
hPa
Rain since
9am
mm
Dir  Spd
km/h
Gust
km/h
Spd
kts
Gust
kts
08/11:30pm - - - - - W 20 28 11 15 - - -
08/11:00pm - - - - - W 19 28 10 15 - - -
08/10:30pm - - - - - W 20 28 11 15 - - -
08/10:00pm - - - - - W 20 30 11 16 - - -
08/09:30pm - - - - - W 22 33 12 18 - - -
08/09:00pm - - - - - W 24 33 13 18 - - -
08/08:30pm - - - - - W 24 41 13 22 - - -
08/08:06pm - - - - - W 28 46 15 25 - - -
08/08:00pm - - - - - W 28 43 15 23 - - -
08/07:48pm - - - - - W 30 48 16 26 - - -
08/07:30pm - - - - - WNW 32 43 17 23 - - -
08/07:00pm - - - - - WNW 32 50 17 27 - - -
08/06:53pm - - - - - WNW 28 48 15 26 - - -
08/06:30pm - - - - - W 32 46 17 25 - - -
08/06:00pm - - - - - W 32 43 17 23 - - -
08/05:30pm - - - - - W 26 37 14 20 - - -
08/05:00pm - - - - - W 22 32 12 17 - - -
08/04:30pm - - - - - W 22 37 12 20 - - -
08/04:00pm - - - - - WSW 24 35 13 19 - - -
08/03:30pm - - - - - WSW 20 33 11 18 - - -
08/03:00pm - - - - - WSW 22 33 12 18 - - -
08/02:30pm - - - - - WSW 24 33 13 18 - - -
08/02:00pm - - - - - WSW 22 33 12 18 - - -
08/01:30pm - - - - - W 24 39 13 21 - - -
08/01:00pm - - - - - W 28 44 15 24 - - -
08/12:30pm - - - - - W 19 30 10 16 - - -
08/12:00pm - - - - - W 24 35 13 19 - - -
08/11:30am - - - - - W 24 35 13 19 - - -
08/11:05am - - - - - W 28 50 15 27 - - -
08/11:00am - - - - - W 26 41 14 22 - - -
08/10:47am - - - - - W 28 46 15 25 - - -
08/10:30am - - - - - W 28 41 15 22 - - -
08/10:09am - - - - - W 30 48 16 26 - - -
08/10:00am - - - - - WNW 30 43 16 23 - - -
08/09:30am - - - - - W 28 50 15 27 - - -
08/09:19am - - - - - W 28 52 15 28 - - -
08/09:00am - - - - - WNW 26 41 14 22 - - -
08/08:30am - - - - - WNW 28 46 15 25 - - -
08/08:08am - - - - - WNW 28 46 15 25 - - -
08/08:00am - - - - - WNW 24 37 13 20 - - -
08/07:30am - - - - - WNW 24 37 13 20 - - -
08/07:00am - - - - - WNW 24 39 13 21 - - -
08/06:30am - - - - - WNW 20 32 11 17 - - -
08/06:00am - - - - - WNW 26 39 14 21 - - -
08/05:40am - - - - - WNW 28 46 15 25 - - -
08/05:30am - - - - - WNW 26 50 14 27 - - -
08/05:00am - - - - - W 26 41 14 22 - - -
08/04:30am - - - - - W 28 43 15 23 - - -
08/04:00am - - - - - W 28 44 15 24 - - -
08/03:30am - - - - - W 32 48 17 26 - - -
08/03:21am - - - - - W 28 48 15 26 - - -
08/03:00am - - - - - WNW 26 37 14 20 - - -
08/02:30am - - - - - W 22 35 12 19 - - -
08/02:00am - - - - - WNW 24 35 13 19 - - -
08/01:30am - - - - - W 22 39 12 21 - - -
08/01:00am - - - - - W 26 41 14 22 - - -
08/12:30am - - - - - W 22 44 12 24 - - -
08/12:00am - - - - - WNW 22 37 12 20 - - -
 
Date/Time
EST
Temp
°C
App
Temp
°C
Dew
Point
°C
Rel
Hum
%
Delta-T
°C
Wind Press
QNH
hPa
Press
MSL
hPa
Rain since
9am
mm
Dir  Spd
km/h
Gust
km/h
Spd
kts
Gust
kts
07/11:30pm - - - - - W 22 35 12 19 - - -
07/11:00pm - - - - - W 28 39 15 21 - - -
07/10:30pm - - - - - WNW 20 35 11 19 - - -
07/10:00pm - - - - - W 22 32 12 17 - - -
07/09:30pm - - - - - W 26 37 14 20 - - -
07/09:00pm - - - - - WNW 30 48 16 26 - - -
07/08:31pm - - - - - W 32 52 17 28 - - -
07/08:30pm - - - - - W 32 48 17 26 - - -
07/08:25pm - - - - - W 30 48 16 26 - - -
07/08:00pm - - - - - W 30 46 16 25 - - -
07/07:30pm - - - - - W 33 52 18 28 - - -
07/07:25pm - - - - - W 33 52 18 28 - - -
07/07:00pm - - - - - W 26 39 14 21 - - -
07/06:32pm - - - - - WNW 32 52 17 28 - - -
07/06:30pm - - - - - WNW 32 48 17 26 - - -
07/06:00pm - - - - - WNW 28 48 15 26 - - -
07/05:30pm - - - - - W 24 35 13 19 - - -
07/05:00pm - - - - - W 32 44 17 24 - - -
07/04:33pm - - - - - W 32 50 17 27 - - -
07/04:30pm - - - - - WNW 30 48 16 26 - - -
07/04:25pm - - - - - NW 28 48 15 26 - - -
07/04:00pm - - - - - W 30 41 16 22 - - -
07/03:31pm - - - - - W 30 50 16 27 - - -
07/03:30pm - - - - - W 30 46 16 25 - - -
07/03:09pm - - - - - W 28 48 15 26 - - -
07/03:00pm - - - - - W 28 41 15 22 - - -
07/02:33pm - - - - - W 28 50 15 27 - - -
07/02:30pm - - - - - W 28 50 15 27 - - -
07/02:00pm - - - - - SW 30 50 16 27 - - -
07/01:43pm - - - - - SW 28 50 15 27 - - -
07/01:30pm - - - - - WSW 28 43 15 23 - - -
07/01:13pm - - - - - W 28 50 15 27 - - -
07/01:00pm - - - - - W 32 44 17 24 - - -
07/12:35pm - - - - - W 32 50 17 27 - - -
07/12:30pm - - - - - W 33 50 18 27 - - -
07/12:08pm - - - - - W 35 56 19 30 - - -
07/12:00pm - - - - - W 26 44 14 24 - - -
07/11:49am - - - - - W 28 52 15 28 - - -
07/11:30am - - - - - WSW 26 43 14 23 - - -
07/11:00am - - - - - W 22 44 12 24 - - -
07/10:30am - - - - - W 32 57 17 31 - - -
07/10:09am - - - - - WSW 28 56 15 30 - - -
07/10:08am - - - - - WSW 26 56 14 30 - - -
07/10:00am - - - - - WSW 13 32 7 17 - - -
07/09:30am - - - - - NNW 11 13 6 7 - - -
07/09:00am - - - - - NNW 11 15 6 8 - - -
07/08:30am - - - - - NW 9 13 5 7 - - -
07/08:00am - - - - - NNW 9 11 5 6 - - -
07/07:30am - - - - - NNW 13 15 7 8 - - -
07/07:00am - - - - - NNW 11 13 6 7 - - -
07/06:30am - - - - - NW 9 11 5 6 - - -
07/06:00am - - - - - NNW 11 13 6 7 - - -
07/05:30am - - - - - WSW 13 15 7 8 - - -
07/05:00am - - - - - WSW 15 19 8 10 - - -
07/04:30am - - - - - WSW 19 22 10 12 - - -
07/04:00am - - - - - SW 15 19 8 10 - - -
07/03:30am - - - - - WSW 11 15 6 8 - - -
07/03:00am - - - - - WNW 13 19 7 10 - - -
07/02:30am - - - - - W 11 17 6 9 - - -
07/02:00am - - - - - W 15 20 8 11 - - -
07/01:30am - - - - - W 19 28 10 15 - - -
07/01:00am - - - - - NW 19 28 10 15 - - -
07/12:30am - - - - - WNW 17 24 9 13 - - -
07/12:00am - - - - - NW 17 22 9 12 - - -
 
Date/Time
EST
Temp
°C
App
Temp
°C
Dew
Point
°C
Rel
Hum
%
Delta-T
°C
Wind Press
QNH
hPa
Press
MSL
hPa
Rain since
9am
mm
Dir  Spd
km/h
Gust
km/h
Spd
kts
Gust
kts
06/11:30pm - - - - - NW 17 20 9 11 - - -
06/11:00pm - - - - - NW 15 19 8 10 - - -
06/10:30pm - - - - - WNW 17 22 9 12 - - -
06/10:00pm - - - - - NNW 9 15 5 8 - - -
06/09:30pm - - - - - NNW 13 17 7 9 - - -
06/09:00pm - - - - - NNW 15 17 8 9 - - -
06/08:30pm - - - - - N 15 17 8 9 - - -
06/08:00pm - - - - - NNW 15 15 8 8 - - -
06/07:30pm - - - - - NW 13 15 7 8 - - -
06/07:00pm - - - - - NW 13 13 7 7 - - -
06/06:30pm - - - - - NW 13 13 7 7 - - -

Other formats

Comma delimited format used in spreadsheet applications
http://www.bom.gov.au/fwo/IDN60801/IDN60801.95752.axf

JavaScript Object Notation format (JSON) in row-major order
http://www.bom.gov.au/fwo/IDN60801/IDN60801.95752.json

Data quality

Most of these data are generated automatically and are frequently updated. Quality checks on data are not normally performed. It is possible for incorrect values to appear. Refer to information at About Latest Weather Observations and please check the disclaimer before using these data.